sensor_id;sensor_type;location;lat;lon;timestamp;P1;durP1;ratioP1;P2;durP2;ratioP2
4102;SDS011;2065;49.790;9.620;2022-12-20T00:01:39;54.30;;;25.60;;
4102;SDS011;2065;49.790;9.620;2022-12-20T00:04:07;62.50;;;26.67;;
4102;SDS011;2065;49.790;9.620;2022-12-20T00:06:36;62.83;;;25.40;;
4102;SDS011;2065;49.790;9.620;2022-12-20T00:09:05;67.53;;;28.30;;
4102;SDS011;2065;49.790;9.620;2022-12-20T00:11:34;51.53;;;27.70;;
4102;SDS011;2065;49.790;9.620;2022-12-20T00:14:03;54.57;;;25.70;;
4102;SDS011;2065;49.790;9.620;2022-12-20T00:16:30;59.53;;;26.60;;
4102;SDS011;2065;49.790;9.620;2022-12-20T00:18:57;61.20;;;25.77;;
4102;SDS011;2065;49.790;9.620;2022-12-20T00:21:27;65.57;;;25.23;;
4102;SDS011;2065;49.790;9.620;2022-12-20T00:23:55;60.47;;;25.97;;
4102;SDS011;2065;49.790;9.620;2022-12-20T00:26:23;56.70;;;25.10;;
4102;SDS011;2065;49.790;9.620;2022-12-20T00:28:52;60.20;;;24.47;;
4102;SDS011;2065;49.790;9.620;2022-12-20T00:31:21;62.90;;;27.07;;
4102;SDS011;2065;49.790;9.620;2022-12-20T00:33:50;62.20;;;27.73;;
4102;SDS011;2065;49.790;9.620;2022-12-20T00:36:19;56.87;;;25.00;;
4102;SDS011;2065;49.790;9.620;2022-12-20T00:38:47;56.20;;;25.13;;
4102;SDS011;2065;49.790;9.620;2022-12-20T00:41:17;77.83;;;28.40;;
4102;SDS011;2065;49.790;9.620;2022-12-20T00:43:45;64.50;;;28.17;;
4102;SDS011;2065;49.790;9.620;2022-12-20T00:46:15;62.20;;;25.37;;
4102;SDS011;2065;49.790;9.620;2022-12-20T00:48:42;58.50;;;30.03;;
4102;SDS011;2065;49.790;9.620;2022-12-20T00:51:11;65.37;;;26.60;;
4102;SDS011;2065;49.790;9.620;2022-12-20T00:53:39;55.87;;;27.80;;
4102;SDS011;2065;49.790;9.620;2022-12-20T00:56:07;61.57;;;28.00;;
4102;SDS011;2065;49.790;9.620;2022-12-20T00:58:35;68.63;;;28.70;;
4102;SDS011;2065;49.790;9.620;2022-12-20T01:01:04;60.80;;;28.33;;
4102;SDS011;2065;49.790;9.620;2022-12-20T01:03:41;62.23;;;26.60;;
4102;SDS011;2065;49.790;9.620;2022-12-20T01:06:08;59.77;;;24.40;;
4102;SDS011;2065;49.790;9.620;2022-12-20T01:08:35;65.70;;;27.20;;
4102;SDS011;2065;49.790;9.620;2022-12-20T01:11:03;64.93;;;26.63;;
4102;SDS011;2065;49.790;9.620;2022-12-20T01:13:33;68.30;;;27.40;;
4102;SDS011;2065;49.790;9.620;2022-12-20T01:16:05;65.27;;;28.10;;
4102;SDS011;2065;49.790;9.620;2022-12-20T01:18:32;57.30;;;26.60;;
4102;SDS011;2065;49.790;9.620;2022-12-20T01:21:02;54.97;;;25.40;;
4102;SDS011;2065;49.790;9.620;2022-12-20T01:23:30;64.87;;;28.50;;
4102;SDS011;2065;49.790;9.620;2022-12-20T01:25:58;63.93;;;30.50;;
4102;SDS011;2065;49.790;9.620;2022-12-20T01:28:25;65.80;;;30.17;;
4102;SDS011;2065;49.790;9.620;2022-12-20T01:30:53;60.87;;;30.40;;
4102;SDS011;2065;49.790;9.620;2022-12-20T01:33:20;65.60;;;29.23;;
4102;SDS011;2065;49.790;9.620;2022-12-20T01:35:55;65.50;;;27.43;;
4102;SDS011;2065;49.790;9.620;2022-12-20T01:38:24;64.87;;;28.80;;
4102;SDS011;2065;49.790;9.620;2022-12-20T01:40:52;57.27;;;28.80;;
4102;SDS011;2065;49.790;9.620;2022-12-20T01:43:21;65.73;;;29.80;;
4102;SDS011;2065;49.790;9.620;2022-12-20T01:45:49;88.40;;;35.20;;
4102;SDS011;2065;49.790;9.620;2022-12-20T01:48:24;75.77;;;31.47;;
4102;SDS011;2065;49.790;9.620;2022-12-20T01:50:51;67.27;;;28.27;;
4102;SDS011;2065;49.790;9.620;2022-12-20T01:53:19;59.70;;;28.23;;
4102;SDS011;2065;49.790;9.620;2022-12-20T01:55:50;70.70;;;26.07;;
4102;SDS011;2065;49.790;9.620;2022-12-20T01:58:19;64.57;;;27.17;;
4102;SDS011;2065;49.790;9.620;2022-12-20T02:00:48;58.40;;;28.93;;
4102;SDS011;2065;49.790;9.620;2022-12-20T02:03:15;65.23;;;26.87;;
4102;SDS011;2065;49.790;9.620;2022-12-20T02:05:44;65.37;;;30.60;;
4102;SDS011;2065;49.790;9.620;2022-12-20T02:08:12;62.20;;;28.00;;
4102;SDS011;2065;49.790;9.620;2022-12-20T02:10:46;65.83;;;31.97;;
4102;SDS011;2065;49.790;9.620;2022-12-20T02:13:23;62.33;;;28.47;;
4102;SDS011;2065;49.790;9.620;2022-12-20T02:16:00;77.03;;;31.70;;
4102;SDS011;2065;49.790;9.620;2022-12-20T02:18:31;65.80;;;30.30;;
4102;SDS011;2065;49.790;9.620;2022-12-20T02:21:16;76.00;;;28.90;;
4102;SDS011;2065;49.790;9.620;2022-12-20T02:24:09;59.50;;;26.20;;
4102;SDS011;2065;49.790;9.620;2022-12-20T02:30:02;60.83;;;30.20;;
4102;SDS011;2065;49.790;9.620;2022-12-20T02:32:36;62.07;;;27.43;;
4102;SDS011;2065;49.790;9.620;2022-12-20T02:35:06;62.47;;;25.60;;
4102;SDS011;2065;49.790;9.620;2022-12-20T02:37:34;71.00;;;29.43;;
4102;SDS011;2065;49.790;9.620;2022-12-20T02:40:02;78.47;;;29.20;;
4102;SDS011;2065;49.790;9.620;2022-12-20T02:42:31;71.47;;;31.57;;
4102;SDS011;2065;49.790;9.620;2022-12-20T02:45:00;81.50;;;30.80;;
4102;SDS011;2065;49.790;9.620;2022-12-20T02:47:41;83.40;;;29.53;;
4102;SDS011;2065;49.790;9.620;2022-12-20T02:50:14;64.87;;;25.97;;
4102;SDS011;2065;49.790;9.620;2022-12-20T02:52:44;75.00;;;29.80;;
4102;SDS011;2065;49.790;9.620;2022-12-20T02:55:11;61.87;;;29.50;;
4102;SDS011;2065;49.790;9.620;2022-12-20T02:57:41;74.33;;;30.10;;
4102;SDS011;2065;49.790;9.620;2022-12-20T03:00:14;69.13;;;27.67;;
4102;SDS011;2065;49.790;9.620;2022-12-20T03:02:43;57.97;;;26.10;;
4102;SDS011;2065;49.790;9.620;2022-12-20T03:05:29;66.13;;;26.47;;
4102;SDS011;2065;49.790;9.620;2022-12-20T03:07:58;66.93;;;29.90;;
4102;SDS011;2065;49.790;9.620;2022-12-20T03:10:25;81.63;;;29.40;;
4102;SDS011;2065;49.790;9.620;2022-12-20T03:12:52;57.83;;;28.83;;
4102;SDS011;2065;49.790;9.620;2022-12-20T03:15:20;57.03;;;26.93;;
4102;SDS011;2065;49.790;9.620;2022-12-20T03:17:51;64.50;;;27.80;;
4102;SDS011;2065;49.790;9.620;2022-12-20T03:20:18;60.20;;;28.13;;
4102;SDS011;2065;49.790;9.620;2022-12-20T03:22:45;68.73;;;29.10;;
4102;SDS011;2065;49.790;9.620;2022-12-20T03:25:12;58.07;;;27.43;;
4102;SDS011;2065;49.790;9.620;2022-12-20T03:27:39;60.97;;;29.70;;
4102;SDS011;2065;49.790;9.620;2022-12-20T03:30:08;63.57;;;27.53;;
4102;SDS011;2065;49.790;9.620;2022-12-20T03:32:37;62.07;;;30.07;;
4102;SDS011;2065;49.790;9.620;2022-12-20T03:35:06;71.03;;;29.80;;
4102;SDS011;2065;49.790;9.620;2022-12-20T03:37:37;65.60;;;27.70;;
4102;SDS011;2065;49.790;9.620;2022-12-20T03:40:05;52.53;;;26.70;;
4102;SDS011;2065;49.790;9.620;2022-12-20T03:42:33;54.27;;;28.57;;
4102;SDS011;2065;49.790;9.620;2022-12-20T03:45:01;67.30;;;27.90;;
4102;SDS011;2065;49.790;9.620;2022-12-20T03:47:29;83.67;;;29.83;;
4102;SDS011;2065;49.790;9.620;2022-12-20T03:49:58;62.27;;;26.20;;
4102;SDS011;2065;49.790;9.620;2022-12-20T03:52:27;57.13;;;25.47;;
4102;SDS011;2065;49.790;9.620;2022-12-20T03:54:54;70.13;;;26.03;;
4102;SDS011;2065;49.790;9.620;2022-12-20T03:57:28;59.50;;;26.00;;
4102;SDS011;2065;49.790;9.620;2022-12-20T03:59:56;58.47;;;26.57;;
4102;SDS011;2065;49.790;9.620;2022-12-20T04:02:23;70.27;;;28.50;;
4102;SDS011;2065;49.790;9.620;2022-12-20T04:04:51;76.57;;;29.37;;
4102;SDS011;2065;49.790;9.620;2022-12-20T04:07:19;78.37;;;27.07;;
4102;SDS011;2065;49.790;9.620;2022-12-20T04:09:46;70.37;;;28.40;;
4102;SDS011;2065;49.790;9.620;2022-12-20T04:12:14;80.63;;;28.30;;
4102;SDS011;2065;49.790;9.620;2022-12-20T04:14:42;57.33;;;28.00;;
4102;SDS011;2065;49.790;9.620;2022-12-20T04:17:10;70.60;;;29.07;;
4102;SDS011;2065;49.790;9.620;2022-12-20T04:19:38;79.03;;;27.83;;
4102;SDS011;2065;49.790;9.620;2022-12-20T04:22:06;60.53;;;28.20;;
4102;SDS011;2065;49.790;9.620;2022-12-20T04:24:46;56.43;;;26.37;;
4102;SDS011;2065;49.790;9.620;2022-12-20T04:27:21;73.03;;;27.90;;
4102;SDS011;2065;49.790;9.620;2022-12-20T04:29:50;54.77;;;26.77;;
4102;SDS011;2065;49.790;9.620;2022-12-20T04:32:18;59.87;;;28.03;;
4102;SDS011;2065;49.790;9.620;2022-12-20T04:34:45;67.17;;;29.60;;
4102;SDS011;2065;49.790;9.620;2022-12-20T04:37:12;63.90;;;26.70;;
4102;SDS011;2065;49.790;9.620;2022-12-20T04:39:47;66.70;;;28.90;;
4102;SDS011;2065;49.790;9.620;2022-12-20T04:42:20;62.93;;;26.80;;
4102;SDS011;2065;49.790;9.620;2022-12-20T04:44:48;61.27;;;26.83;;
4102;SDS011;2065;49.790;9.620;2022-12-20T04:47:21;61.73;;;25.40;;
4102;SDS011;2065;49.790;9.620;2022-12-20T04:49:50;64.13;;;26.07;;
4102;SDS011;2065;49.790;9.620;2022-12-20T04:52:17;63.87;;;26.67;;
4102;SDS011;2065;49.790;9.620;2022-12-20T04:55:03;61.30;;;26.67;;
4102;SDS011;2065;49.790;9.620;2022-12-20T04:57:33;57.67;;;27.10;;
4102;SDS011;2065;49.790;9.620;2022-12-20T05:00:00;58.47;;;27.37;;
4102;SDS011;2065;49.790;9.620;2022-12-20T05:02:28;61.50;;;26.87;;
4102;SDS011;2065;49.790;9.620;2022-12-20T05:05:01;53.73;;;23.73;;
4102;SDS011;2065;49.790;9.620;2022-12-20T05:07:34;58.77;;;27.83;;
4102;SDS011;2065;49.790;9.620;2022-12-20T05:10:03;61.40;;;28.10;;
4102;SDS011;2065;49.790;9.620;2022-12-20T05:12:30;67.63;;;27.60;;
4102;SDS011;2065;49.790;9.620;2022-12-20T05:15:00;70.83;;;29.33;;
4102;SDS011;2065;49.790;9.620;2022-12-20T05:17:27;58.13;;;28.37;;
4102;SDS011;2065;49.790;9.620;2022-12-20T05:19:54;72.60;;;28.83;;
4102;SDS011;2065;49.790;9.620;2022-12-20T05:22:21;68.40;;;28.93;;
4102;SDS011;2065;49.790;9.620;2022-12-20T05:25:10;61.10;;;25.47;;
4102;SDS011;2065;49.790;9.620;2022-12-20T05:28:00;65.17;;;28.27;;
4102;SDS011;2065;49.790;9.620;2022-12-20T05:30:31;67.40;;;27.40;;
4102;SDS011;2065;49.790;9.620;2022-12-20T05:32:58;75.43;;;29.70;;
4102;SDS011;2065;49.790;9.620;2022-12-20T05:35:26;71.87;;;29.83;;
4102;SDS011;2065;49.790;9.620;2022-12-20T05:38:00;66.13;;;27.63;;
4102;SDS011;2065;49.790;9.620;2022-12-20T05:40:29;68.57;;;30.77;;
4102;SDS011;2065;49.790;9.620;2022-12-20T05:42:57;55.00;;;25.67;;
4102;SDS011;2065;49.790;9.620;2022-12-20T05:45:33;67.83;;;26.67;;
4102;SDS011;2065;49.790;9.620;2022-12-20T05:48:05;70.27;;;29.40;;
4102;SDS011;2065;49.790;9.620;2022-12-20T05:50:36;62.07;;;30.83;;
4102;SDS011;2065;49.790;9.620;2022-12-20T05:53:35;55.13;;;26.60;;
4102;SDS011;2065;49.790;9.620;2022-12-20T05:56:06;67.97;;;27.00;;
4102;SDS011;2065;49.790;9.620;2022-12-20T05:58:36;56.77;;;26.80;;
4102;SDS011;2065;49.790;9.620;2022-12-20T06:01:05;66.83;;;29.53;;
4102;SDS011;2065;49.790;9.620;2022-12-20T06:03:36;62.83;;;26.73;;
4102;SDS011;2065;49.790;9.620;2022-12-20T06:06:08;62.07;;;28.40;;
4102;SDS011;2065;49.790;9.620;2022-12-20T06:08:35;71.63;;;30.60;;
4102;SDS011;2065;49.790;9.620;2022-12-20T06:11:07;61.83;;;28.13;;
4102;SDS011;2065;49.790;9.620;2022-12-20T06:13:44;76.87;;;28.43;;
4102;SDS011;2065;49.790;9.620;2022-12-20T06:16:13;56.67;;;29.47;;
4102;SDS011;2065;49.790;9.620;2022-12-20T06:18:40;55.27;;;26.10;;
4102;SDS011;2065;49.790;9.620;2022-12-20T06:21:07;67.30;;;31.63;;
4102;SDS011;2065;49.790;9.620;2022-12-20T06:23:35;54.20;;;30.10;;
4102;SDS011;2065;49.790;9.620;2022-12-20T06:26:06;54.33;;;26.70;;
4102;SDS011;2065;49.790;9.620;2022-12-20T06:28:39;60.53;;;27.33;;
4102;SDS011;2065;49.790;9.620;2022-12-20T06:31:08;61.53;;;27.37;;
4102;SDS011;2065;49.790;9.620;2022-12-20T06:33:46;69.73;;;29.43;;
4102;SDS011;2065;49.790;9.620;2022-12-20T06:36:15;60.77;;;27.63;;
4102;SDS011;2065;49.790;9.620;2022-12-20T06:38:42;76.63;;;30.97;;
4102;SDS011;2065;49.790;9.620;2022-12-20T06:41:10;76.53;;;31.90;;
4102;SDS011;2065;49.790;9.620;2022-12-20T06:43:38;60.90;;;31.40;;
4102;SDS011;2065;49.790;9.620;2022-12-20T06:46:06;81.97;;;32.70;;
4102;SDS011;2065;49.790;9.620;2022-12-20T06:48:33;71.13;;;30.07;;
4102;SDS011;2065;49.790;9.620;2022-12-20T06:51:00;65.67;;;31.63;;
4102;SDS011;2065;49.790;9.620;2022-12-20T06:53:27;71.17;;;28.87;;
4102;SDS011;2065;49.790;9.620;2022-12-20T06:55:54;60.23;;;30.70;;
4102;SDS011;2065;49.790;9.620;2022-12-20T06:58:23;57.33;;;28.30;;
4102;SDS011;2065;49.790;9.620;2022-12-20T07:00:50;71.67;;;27.77;;
4102;SDS011;2065;49.790;9.620;2022-12-20T07:03:17;57.33;;;29.37;;
4102;SDS011;2065;49.790;9.620;2022-12-20T07:05:44;66.97;;;28.73;;
4102;SDS011;2065;49.790;9.620;2022-12-20T07:08:16;95.23;;;41.73;;
4102;SDS011;2065;49.790;9.620;2022-12-20T07:10:43;87.60;;;36.10;;
4102;SDS011;2065;49.790;9.620;2022-12-20T07:13:10;67.13;;;38.03;;
4102;SDS011;2065;49.790;9.620;2022-12-20T07:15:38;81.07;;;35.07;;
4102;SDS011;2065;49.790;9.620;2022-12-20T07:18:05;70.03;;;33.90;;
4102;SDS011;2065;49.790;9.620;2022-12-20T07:20:33;74.67;;;36.37;;
4102;SDS011;2065;49.790;9.620;2022-12-20T07:22:59;90.80;;;42.77;;
4102;SDS011;2065;49.790;9.620;2022-12-20T07:25:26;119.60;;;49.70;;
4102;SDS011;2065;49.790;9.620;2022-12-20T07:27:53;103.90;;;45.67;;
4102;SDS011;2065;49.790;9.620;2022-12-20T07:30:21;91.33;;;38.20;;
4102;SDS011;2065;49.790;9.620;2022-12-20T07:32:49;94.27;;;36.40;;
4102;SDS011;2065;49.790;9.620;2022-12-20T07:35:16;86.27;;;37.50;;
4102;SDS011;2065;49.790;9.620;2022-12-20T07:37:43;77.40;;;37.10;;
4102;SDS011;2065;49.790;9.620;2022-12-20T07:40:11;77.97;;;34.90;;
4102;SDS011;2065;49.790;9.620;2022-12-20T07:42:38;75.20;;;33.50;;
4102;SDS011;2065;49.790;9.620;2022-12-20T07:45:06;83.07;;;35.10;;
4102;SDS011;2065;49.790;9.620;2022-12-20T07:47:33;75.47;;;34.57;;
4102;SDS011;2065;49.790;9.620;2022-12-20T07:50:02;74.20;;;35.43;;
4102;SDS011;2065;49.790;9.620;2022-12-20T07:52:29;76.43;;;35.07;;
4102;SDS011;2065;49.790;9.620;2022-12-20T07:55:00;77.00;;;35.37;;
4102;SDS011;2065;49.790;9.620;2022-12-20T07:57:31;75.23;;;34.80;;
4102;SDS011;2065;49.790;9.620;2022-12-20T08:00:02;65.97;;;34.10;;
4102;SDS011;2065;49.790;9.620;2022-12-20T08:02:38;67.13;;;34.00;;
4102;SDS011;2065;49.790;9.620;2022-12-20T08:05:09;73.00;;;39.07;;
4102;SDS011;2065;49.790;9.620;2022-12-20T08:07:37;69.10;;;35.50;;
4102;SDS011;2065;49.790;9.620;2022-12-20T08:10:07;68.00;;;30.77;;
4102;SDS011;2065;49.790;9.620;2022-12-20T08:12:36;57.10;;;27.07;;
4102;SDS011;2065;49.790;9.620;2022-12-20T08:15:05;56.50;;;30.37;;
4102;SDS011;2065;49.790;9.620;2022-12-20T08:17:33;64.40;;;30.07;;
4102;SDS011;2065;49.790;9.620;2022-12-20T08:20:00;67.43;;;31.50;;
4102;SDS011;2065;49.790;9.620;2022-12-20T08:22:29;63.63;;;32.10;;
4102;SDS011;2065;49.790;9.620;2022-12-20T08:24:56;57.20;;;28.27;;
4102;SDS011;2065;49.790;9.620;2022-12-20T08:27:23;66.70;;;30.20;;
4102;SDS011;2065;49.790;9.620;2022-12-20T08:29:50;64.13;;;32.00;;
4102;SDS011;2065;49.790;9.620;2022-12-20T08:32:17;83.13;;;33.60;;
4102;SDS011;2065;49.790;9.620;2022-12-20T08:34:44;68.67;;;31.80;;
4102;SDS011;2065;49.790;9.620;2022-12-20T08:37:14;61.37;;;30.43;;
4102;SDS011;2065;49.790;9.620;2022-12-20T08:39:43;65.40;;;33.47;;
4102;SDS011;2065;49.790;9.620;2022-12-20T08:42:10;61.60;;;31.93;;
4102;SDS011;2065;49.790;9.620;2022-12-20T08:44:37;62.13;;;30.10;;
4102;SDS011;2065;49.790;9.620;2022-12-20T08:47:04;68.10;;;32.57;;
4102;SDS011;2065;49.790;9.620;2022-12-20T08:49:31;72.60;;;32.30;;
4102;SDS011;2065;49.790;9.620;2022-12-20T08:51:58;66.77;;;30.93;;
4102;SDS011;2065;49.790;9.620;2022-12-20T08:54:26;72.30;;;35.10;;
4102;SDS011;2065;49.790;9.620;2022-12-20T08:56:54;64.13;;;29.83;;
4102;SDS011;2065;49.790;9.620;2022-12-20T08:59:21;67.43;;;31.50;;
4102;SDS011;2065;49.790;9.620;2022-12-20T09:01:49;89.20;;;42.60;;
4102;SDS011;2065;49.790;9.620;2022-12-20T09:04:16;72.43;;;34.27;;
4102;SDS011;2065;49.790;9.620;2022-12-20T09:06:43;65.23;;;29.03;;
4102;SDS011;2065;49.790;9.620;2022-12-20T09:09:10;64.20;;;30.67;;
4102;SDS011;2065;49.790;9.620;2022-12-20T09:11:37;82.50;;;36.60;;
4102;SDS011;2065;49.790;9.620;2022-12-20T09:14:06;70.10;;;31.70;;
4102;SDS011;2065;49.790;9.620;2022-12-20T09:16:34;62.83;;;30.47;;
4102;SDS011;2065;49.790;9.620;2022-12-20T09:19:01;61.80;;;29.70;;
4102;SDS011;2065;49.790;9.620;2022-12-20T09:21:29;84.93;;;31.97;;
4102;SDS011;2065;49.790;9.620;2022-12-20T09:23:56;69.77;;;29.60;;
4102;SDS011;2065;49.790;9.620;2022-12-20T09:26:23;66.97;;;32.00;;
4102;SDS011;2065;49.790;9.620;2022-12-20T09:28:50;63.03;;;29.60;;
4102;SDS011;2065;49.790;9.620;2022-12-20T09:31:20;69.73;;;28.97;;
4102;SDS011;2065;49.790;9.620;2022-12-20T09:33:49;60.27;;;28.70;;
4102;SDS011;2065;49.790;9.620;2022-12-20T09:36:19;64.27;;;30.63;;
4102;SDS011;2065;49.790;9.620;2022-12-20T09:38:47;62.80;;;32.47;;
4102;SDS011;2065;49.790;9.620;2022-12-20T09:41:17;66.53;;;32.67;;
4102;SDS011;2065;49.790;9.620;2022-12-20T09:43:50;73.00;;;32.20;;
4102;SDS011;2065;49.790;9.620;2022-12-20T09:46:17;68.27;;;32.37;;
4102;SDS011;2065;49.790;9.620;2022-12-20T09:48:46;63.30;;;32.80;;
4102;SDS011;2065;49.790;9.620;2022-12-20T09:51:16;62.27;;;34.20;;
4102;SDS011;2065;49.790;9.620;2022-12-20T09:54:06;68.17;;;31.50;;
4102;SDS011;2065;49.790;9.620;2022-12-20T09:56:42;73.27;;;32.70;;
4102;SDS011;2065;49.790;9.620;2022-12-20T09:59:17;68.37;;;33.90;;
4102;SDS011;2065;49.790;9.620;2022-12-20T10:01:45;68.10;;;34.40;;
4102;SDS011;2065;49.790;9.620;2022-12-20T10:04:17;97.93;;;36.23;;
4102;SDS011;2065;49.790;9.620;2022-12-20T10:06:49;89.13;;;37.90;;
4102;SDS011;2065;49.790;9.620;2022-12-20T10:09:29;67.40;;;36.80;;
4102;SDS011;2065;49.790;9.620;2022-12-20T10:12:10;72.17;;;36.90;;
4102;SDS011;2065;49.790;9.620;2022-12-20T10:14:54;78.23;;;39.13;;
4102;SDS011;2065;49.790;9.620;2022-12-20T10:17:33;124.40;;;50.60;;
4102;SDS011;2065;49.790;9.620;2022-12-20T10:20:21;102.90;;;44.90;;
4102;SDS011;2065;49.790;9.620;2022-12-20T10:22:56;107.63;;;44.50;;
4102;SDS011;2065;49.790;9.620;2022-12-20T10:25:29;73.40;;;31.30;;
4102;SDS011;2065;49.790;9.620;2022-12-20T10:27:57;70.80;;;30.80;;
4102;SDS011;2065;49.790;9.620;2022-12-20T10:30:28;68.73;;;30.87;;
4102;SDS011;2065;49.790;9.620;2022-12-20T10:32:58;73.60;;;26.70;;
4102;SDS011;2065;49.790;9.620;2022-12-20T10:35:27;55.80;;;28.87;;
4102;SDS011;2065;49.790;9.620;2022-12-20T10:37:56;68.13;;;28.90;;
4102;SDS011;2065;49.790;9.620;2022-12-20T10:40:25;57.03;;;28.70;;
4102;SDS011;2065;49.790;9.620;2022-12-20T10:42:53;50.53;;;24.13;;
4102;SDS011;2065;49.790;9.620;2022-12-20T10:45:26;48.90;;;25.47;;
4102;SDS011;2065;49.790;9.620;2022-12-20T10:47:58;81.17;;;35.70;;
4102;SDS011;2065;49.790;9.620;2022-12-20T10:50:28;69.93;;;34.43;;
4102;SDS011;2065;49.790;9.620;2022-12-20T10:53:03;73.40;;;36.17;;
4102;SDS011;2065;49.790;9.620;2022-12-20T10:55:53;69.40;;;30.77;;
4102;SDS011;2065;49.790;9.620;2022-12-20T10:58:34;61.03;;;30.17;;
4102;SDS011;2065;49.790;9.620;2022-12-20T11:01:03;56.33;;;27.00;;
4102;SDS011;2065;49.790;9.620;2022-12-20T11:03:47;62.53;;;31.40;;
4102;SDS011;2065;49.790;9.620;2022-12-20T11:06:18;64.83;;;31.00;;
4102;SDS011;2065;49.790;9.620;2022-12-20T11:08:48;51.33;;;28.03;;
4102;SDS011;2065;49.790;9.620;2022-12-20T11:11:16;60.03;;;28.37;;
4102;SDS011;2065;49.790;9.620;2022-12-20T11:13:45;54.40;;;28.63;;
4102;SDS011;2065;49.790;9.620;2022-12-20T11:16:27;60.30;;;31.07;;
4102;SDS011;2065;49.790;9.620;2022-12-20T11:19:11;54.00;;;25.27;;
4102;SDS011;2065;49.790;9.620;2022-12-20T11:21:58;50.80;;;25.53;;
4102;SDS011;2065;49.790;9.620;2022-12-20T11:24:31;67.20;;;29.73;;
4102;SDS011;2065;49.790;9.620;2022-12-20T11:27:09;65.40;;;31.27;;
4102;SDS011;2065;49.790;9.620;2022-12-20T11:29:49;52.77;;;27.17;;
4102;SDS011;2065;49.790;9.620;2022-12-20T11:32:33;65.80;;;27.67;;
4102;SDS011;2065;49.790;9.620;2022-12-20T11:35:15;55.93;;;27.13;;
4102;SDS011;2065;49.790;9.620;2022-12-20T11:37:51;47.60;;;26.33;;
4102;SDS011;2065;49.790;9.620;2022-12-20T11:40:29;54.40;;;28.10;;
4102;SDS011;2065;49.790;9.620;2022-12-20T11:43:09;54.00;;;27.80;;
4102;SDS011;2065;49.790;9.620;2022-12-20T11:45:49;57.10;;;25.30;;
4102;SDS011;2065;49.790;9.620;2022-12-20T11:48:33;70.20;;;30.57;;
4102;SDS011;2065;49.790;9.620;2022-12-20T11:51:20;60.13;;;29.00;;
4102;SDS011;2065;49.790;9.620;2022-12-20T11:53:51;57.87;;;27.33;;
4102;SDS011;2065;49.790;9.620;2022-12-20T11:56:23;57.37;;;30.77;;
4102;SDS011;2065;49.790;9.620;2022-12-20T11:58:54;68.63;;;34.93;;
4102;SDS011;2065;49.790;9.620;2022-12-20T12:01:26;66.77;;;32.27;;
4102;SDS011;2065;49.790;9.620;2022-12-20T12:04:01;64.33;;;34.17;;
4102;SDS011;2065;49.790;9.620;2022-12-20T12:06:33;70.93;;;34.27;;
4102;SDS011;2065;49.790;9.620;2022-12-20T12:09:07;65.83;;;32.73;;
4102;SDS011;2065;49.790;9.620;2022-12-20T12:11:41;67.43;;;33.00;;
4102;SDS011;2065;49.790;9.620;2022-12-20T12:14:15;68.80;;;34.57;;
4102;SDS011;2065;49.790;9.620;2022-12-20T12:16:49;60.40;;;32.30;;
4102;SDS011;2065;49.790;9.620;2022-12-20T12:19:18;57.03;;;30.20;;
4102;SDS011;2065;49.790;9.620;2022-12-20T12:21:46;65.60;;;29.70;;
4102;SDS011;2065;49.790;9.620;2022-12-20T12:24:19;54.10;;;30.13;;
4102;SDS011;2065;49.790;9.620;2022-12-20T12:26:50;59.07;;;32.23;;
4102;SDS011;2065;49.790;9.620;2022-12-20T12:29:18;67.93;;;31.93;;
4102;SDS011;2065;49.790;9.620;2022-12-20T12:31:47;62.43;;;32.67;;
4102;SDS011;2065;49.790;9.620;2022-12-20T12:34:24;66.80;;;31.97;;
4102;SDS011;2065;49.790;9.620;2022-12-20T12:37:16;71.03;;;30.40;;
4102;SDS011;2065;49.790;9.620;2022-12-20T12:40:18;66.33;;;32.33;;
4102;SDS011;2065;49.790;9.620;2022-12-20T12:46:08;65.53;;;32.57;;
4102;SDS011;2065;49.790;9.620;2022-12-20T12:48:38;59.20;;;31.20;;
4102;SDS011;2065;49.790;9.620;2022-12-20T12:51:09;53.97;;;29.87;;
4102;SDS011;2065;49.790;9.620;2022-12-20T12:53:41;64.57;;;31.40;;
4102;SDS011;2065;49.790;9.620;2022-12-20T12:56:29;54.53;;;27.87;;
4102;SDS011;2065;49.790;9.620;2022-12-20T12:59:18;57.63;;;30.07;;
4102;SDS011;2065;49.790;9.620;2022-12-20T13:01:49;63.87;;;29.90;;
4102;SDS011;2065;49.790;9.620;2022-12-20T13:04:21;66.60;;;31.47;;
4102;SDS011;2065;49.790;9.620;2022-12-20T13:06:54;63.53;;;32.23;;
4102;SDS011;2065;49.790;9.620;2022-12-20T13:09:38;61.83;;;30.23;;
4102;SDS011;2065;49.790;9.620;2022-12-20T13:18:27;63.03;;;30.80;;
4102;SDS011;2065;49.790;9.620;2022-12-20T13:27:02;58.20;;;28.70;;
4102;SDS011;2065;49.790;9.620;2022-12-20T13:29:50;53.77;;;26.57;;
4102;SDS011;2065;49.790;9.620;2022-12-20T13:35:45;66.90;;;31.63;;
4102;SDS011;2065;49.790;9.620;2022-12-20T13:38:48;61.07;;;30.80;;
4102;SDS011;2065;49.790;9.620;2022-12-20T13:41:22;58.50;;;30.03;;
4102;SDS011;2065;49.790;9.620;2022-12-20T13:44:17;53.27;;;29.27;;
4102;SDS011;2065;49.790;9.620;2022-12-20T13:47:01;54.27;;;30.63;;
4102;SDS011;2065;49.790;9.620;2022-12-20T13:49:33;55.33;;;30.27;;
4102;SDS011;2065;49.790;9.620;2022-12-20T13:52:19;55.10;;;27.80;;
4102;SDS011;2065;49.790;9.620;2022-12-20T13:54:51;55.97;;;29.40;;
4102;SDS011;2065;49.790;9.620;2022-12-20T13:57:21;51.73;;;27.83;;
4102;SDS011;2065;49.790;9.620;2022-12-20T13:59:53;58.40;;;27.60;;
4102;SDS011;2065;49.790;9.620;2022-12-20T14:02:23;73.73;;;32.87;;
4102;SDS011;2065;49.790;9.620;2022-12-20T14:04:56;62.23;;;33.17;;
4102;SDS011;2065;49.790;9.620;2022-12-20T14:07:27;56.87;;;30.80;;
4102;SDS011;2065;49.790;9.620;2022-12-20T14:09:56;65.70;;;31.20;;
4102;SDS011;2065;49.790;9.620;2022-12-20T14:12:25;68.93;;;33.90;;
4102;SDS011;2065;49.790;9.620;2022-12-20T14:14:52;57.20;;;30.07;;
4102;SDS011;2065;49.790;9.620;2022-12-20T14:17:24;81.70;;;41.10;;
4102;SDS011;2065;49.790;9.620;2022-12-20T14:20:05;82.87;;;36.80;;
4102;SDS011;2065;49.790;9.620;2022-12-20T14:22:41;69.40;;;35.63;;
4102;SDS011;2065;49.790;9.620;2022-12-20T14:25:17;69.23;;;34.47;;
4102;SDS011;2065;49.790;9.620;2022-12-20T14:27:53;59.50;;;29.30;;
4102;SDS011;2065;49.790;9.620;2022-12-20T14:30:28;66.10;;;35.70;;
4102;SDS011;2065;49.790;9.620;2022-12-20T14:32:58;75.13;;;33.63;;
4102;SDS011;2065;49.790;9.620;2022-12-20T14:35:25;59.90;;;29.17;;
4102;SDS011;2065;49.790;9.620;2022-12-20T14:37:56;71.53;;;34.90;;
4102;SDS011;2065;49.790;9.620;2022-12-20T14:40:25;64.00;;;31.60;;
4102;SDS011;2065;49.790;9.620;2022-12-20T14:42:52;54.20;;;30.47;;
4102;SDS011;2065;49.790;9.620;2022-12-20T14:45:21;64.00;;;30.37;;
4102;SDS011;2065;49.790;9.620;2022-12-20T14:47:55;68.50;;;32.93;;
4102;SDS011;2065;49.790;9.620;2022-12-20T14:50:29;66.13;;;31.30;;
4102;SDS011;2065;49.790;9.620;2022-12-20T14:52:59;61.80;;;32.60;;
4102;SDS011;2065;49.790;9.620;2022-12-20T14:55:29;74.60;;;36.30;;
4102;SDS011;2065;49.790;9.620;2022-12-20T14:57:59;54.97;;;30.90;;
4102;SDS011;2065;49.790;9.620;2022-12-20T15:00:26;65.70;;;30.10;;
4102;SDS011;2065;49.790;9.620;2022-12-20T15:02:59;59.70;;;29.70;;
4102;SDS011;2065;49.790;9.620;2022-12-20T15:08:16;53.00;;;27.67;;
4102;SDS011;2065;49.790;9.620;2022-12-20T15:10:55;60.40;;;27.87;;
4102;SDS011;2065;49.790;9.620;2022-12-20T15:13:25;54.87;;;28.03;;
4102;SDS011;2065;49.790;9.620;2022-12-20T15:15:56;53.60;;;28.13;;
4102;SDS011;2065;49.790;9.620;2022-12-20T15:18:25;59.63;;;29.23;;
4102;SDS011;2065;49.790;9.620;2022-12-20T15:20:55;58.40;;;29.60;;
4102;SDS011;2065;49.790;9.620;2022-12-20T15:23:31;55.00;;;28.33;;
4102;SDS011;2065;49.790;9.620;2022-12-20T15:25:59;54.73;;;28.60;;
4102;SDS011;2065;49.790;9.620;2022-12-20T15:28:27;53.33;;;27.83;;
4102;SDS011;2065;49.790;9.620;2022-12-20T15:30:53;62.00;;;29.70;;
4102;SDS011;2065;49.790;9.620;2022-12-20T15:33:21;66.77;;;32.13;;
4102;SDS011;2065;49.790;9.620;2022-12-20T15:35:49;64.70;;;31.87;;
4102;SDS011;2065;49.790;9.620;2022-12-20T15:38:17;70.57;;;30.63;;